createdAt,value
2023-02-11T00:01:21.362Z,102762.84
2023-02-11T00:03:49.256Z,102762.38
2023-02-11T00:06:17.243Z,102712.16
2023-02-11T00:08:45.300Z,102734.09
2023-02-11T00:11:16.362Z,102757.03
2023-02-11T00:13:45.489Z,102701.44
2023-02-11T00:16:16.902Z,102702.75
2023-02-11T00:18:46.248Z,102671.31
2023-02-11T00:21:17.114Z,102727.31
2023-02-11T00:23:45.611Z,102664.53
2023-02-11T00:26:16.861Z,102655.63
2023-02-11T00:28:45.844Z,102721.56
2023-02-11T00:31:14.832Z,102665.84
2023-02-11T00:33:43.724Z,102688.28
2023-02-11T00:36:15.689Z,102696.59
2023-02-11T00:38:43.755Z,102738.25
2023-02-11T00:41:12.062Z,102725.66
2023-02-11T00:43:41.761Z,102720.13
2023-02-11T00:46:09.726Z,102721.22
2023-02-11T00:48:37.815Z,102665.97
2023-02-11T00:51:05.910Z,102716.44
2023-02-11T00:53:34.432Z,102686.06
2023-02-11T00:56:03.408Z,102724.13
2023-02-11T00:58:32.489Z,102674.88
2023-02-11T01:01:03.594Z,102700.88
2023-02-11T01:03:31.852Z,102679.97
2023-02-11T01:05:59.660Z,102689.69
2023-02-11T01:08:27.594Z,102641.09
2023-02-11T01:11:03.069Z,102617.81
2023-02-11T01:13:33.050Z,102661.94
2023-02-11T01:16:02.337Z,102676.91
2023-02-11T01:18:30.833Z,102654.34
2023-02-11T01:20:58.814Z,102675.31
2023-02-11T01:23:26.965Z,102650.19
2023-02-11T01:25:54.778Z,102682.47
2023-02-11T01:28:24.817Z,102698.47
2023-02-11T01:30:53.243Z,102649.97
2023-02-11T01:33:23.674Z,102648.06
2023-02-11T01:35:52.632Z,102650.75
2023-02-11T01:38:26.717Z,102626.13
2023-02-11T01:40:56.186Z,102612.88
2023-02-11T01:43:24.981Z,102644.13
2023-02-11T01:46:12.985Z,102622.16
2023-02-11T01:48:48.094Z,102643.50
2023-02-11T01:51:20.892Z,102620.47
2023-02-11T01:53:51.146Z,102705.19
2023-02-11T01:56:20.458Z,102646.63
2023-02-11T01:58:52.161Z,102611.63
2023-02-11T02:01:26.199Z,102597.19
2023-02-11T02:04:00.532Z,102630.47
2023-02-11T02:06:33.447Z,102606.34
2023-02-11T02:09:09.643Z,102591.72
2023-02-11T02:11:39.016Z,102643.88
2023-02-11T02:14:07.213Z,102690.78
2023-02-11T02:16:37.016Z,102638.47
2023-02-11T02:19:35.355Z,102654.25
2023-02-11T02:22:51.374Z,102630.53
2023-02-11T02:25:36.893Z,102615.97
2023-02-11T02:28:24.158Z,102602.66
2023-02-11T02:31:17.285Z,102696.81
2023-02-11T02:33:56.469Z,102640.63
2023-02-11T02:36:35.258Z,102680.81
2023-02-11T02:39:11.885Z,102624.38
2023-02-11T02:41:41.606Z,102614.25
2023-02-11T02:44:09.400Z,102634.84
2023-02-11T02:46:39.524Z,102656.97
2023-02-11T02:49:13.850Z,102633.91
2023-02-11T02:52:06.693Z,102598.91
2023-02-11T02:55:11.022Z,102581.28
2023-02-11T02:57:53.665Z,102649.72
2023-02-11T03:00:42.961Z,102619.22
2023-02-11T03:03:21.058Z,102667.63
2023-02-11T03:05:57.401Z,102673.22
2023-02-11T03:08:32.944Z,102631.41
2023-02-11T03:11:03.470Z,102635.16
2023-02-11T03:13:36.346Z,102654.25
2023-02-11T03:16:12.403Z,102567.19
2023-02-11T03:18:42.721Z,102673.31
2023-02-11T03:21:15.680Z,102580.84
2023-02-11T03:23:50.065Z,102671.19
2023-02-11T03:26:25.709Z,102604.25
2023-02-11T03:28:59.045Z,102599.91
2023-02-11T03:31:34.351Z,102648.88
2023-02-11T03:34:07.459Z,102618.41
2023-02-11T03:36:43.414Z,102571.81
2023-02-11T03:39:13.480Z,102567.13
2023-02-11T03:41:44.367Z,102560.88
2023-02-11T03:44:15.248Z,102621.19
2023-02-11T03:46:52.456Z,102604.03
2023-02-11T03:49:23.974Z,102616.72
2023-02-11T03:51:56.790Z,102621.81
2023-02-11T03:54:30.823Z,102569.38
2023-02-11T03:57:01.469Z,102556.94
2023-02-11T03:59:30.680Z,102541.53
2023-02-11T04:02:00.179Z,102624.31
2023-02-11T04:04:29.181Z,102549.09
2023-02-11T04:07:00.230Z,102599.03
2023-02-11T04:09:29.450Z,102614.72
2023-02-11T04:12:03.688Z,102558.56
2023-02-11T04:14:33.306Z,102633.91
2023-02-11T04:17:01.547Z,102584.00
2023-02-11T04:19:30.725Z,102537.28
2023-02-11T04:22:05.356Z,102572.94
2023-02-11T04:24:33.870Z,102550.81
2023-02-11T04:27:02.554Z,102602.53
2023-02-11T04:29:30.639Z,102590.38
2023-02-11T04:31:58.987Z,102570.66
2023-02-11T04:34:27.042Z,102633.03
2023-02-11T04:36:54.735Z,102573.34
2023-02-11T04:39:26.842Z,102624.69
2023-02-11T04:41:54.932Z,102554.41
2023-02-11T04:44:22.763Z,102627.78
2023-02-11T04:46:50.965Z,102541.41
2023-02-11T04:49:19.401Z,102600.59
2023-02-11T04:51:49.391Z,102632.88
2023-02-11T04:54:18.530Z,102558.53
2023-02-11T04:56:48.619Z,102636.50
2023-02-11T04:59:19.812Z,102559.19
2023-02-11T05:01:48.496Z,102616.97
2023-02-11T05:04:16.660Z,102639.00
2023-02-11T05:06:44.817Z,102601.59
2023-02-11T05:09:18.968Z,102640.16
2023-02-11T05:11:48.290Z,102609.78
2023-02-11T05:14:17.895Z,102618.13
2023-02-11T05:16:45.872Z,102546.59
2023-02-11T05:19:13.895Z,102603.06
2023-02-11T05:21:53.153Z,102640.63
2023-02-11T05:24:30.103Z,102603.22
2023-02-11T05:27:01.565Z,102617.03
2023-02-11T05:29:30.050Z,102594.34
2023-02-11T05:32:00.357Z,102557.34
2023-02-11T05:34:29.563Z,102606.41
2023-02-11T05:36:58.951Z,102584.66
2023-02-11T05:39:27.727Z,102624.19
2023-02-11T05:41:56.042Z,102631.06
2023-02-11T05:44:26.827Z,102605.97
2023-02-11T05:46:54.566Z,102554.25
2023-02-11T05:52:05.582Z,102608.75
2023-02-11T05:54:34.064Z,102610.59
2023-02-11T05:57:02.298Z,102538.44
2023-02-11T05:59:52.795Z,102565.09
2023-02-11T06:02:23.891Z,102580.00
2023-02-11T06:04:57.514Z,102595.66
2023-02-11T06:10:26.680Z,102581.03
2023-02-11T06:12:55.080Z,102587.94
2023-02-11T06:15:27.378Z,102544.00
2023-02-11T06:17:59.390Z,102583.84
2023-02-11T06:20:30.848Z,102527.47
2023-02-11T06:23:07.712Z,102568.75
2023-02-11T06:25:38.931Z,102535.66
2023-02-11T06:28:07.793Z,102563.09
2023-02-11T06:30:40.373Z,102594.13
2023-02-11T06:33:11.798Z,102536.09
2023-02-11T06:35:41.619Z,102611.84
2023-02-11T06:38:16.190Z,102593.00
2023-02-11T06:40:52.306Z,102555.78
2023-02-11T06:43:20.778Z,102530.44
2023-02-11T06:46:16.264Z,102573.56
2023-02-11T06:48:57.034Z,102515.78
2023-02-11T06:51:29.370Z,102533.13
2023-02-11T06:53:57.636Z,102593.31
2023-02-11T06:56:37.396Z,102533.66
2023-02-11T06:59:15.565Z,102582.38
2023-02-11T07:01:48.703Z,102552.00
2023-02-11T07:04:16.886Z,102549.00
2023-02-11T07:06:46.892Z,102534.56
2023-02-11T07:09:15.712Z,102572.13
2023-02-11T07:11:47.243Z,102550.94
2023-02-11T07:14:17.478Z,102588.53
2023-02-11T07:16:50.646Z,102582.75
2023-02-11T07:19:20.336Z,102515.44
2023-02-11T07:21:48.784Z,102582.28
2023-02-11T07:24:25.861Z,102563.50
2023-02-11T07:27:02.999Z,102536.31
2023-02-11T07:29:37.247Z,102561.69
2023-02-11T07:32:07.408Z,102575.50
2023-02-11T07:34:35.023Z,102573.34
2023-02-11T07:37:02.894Z,102568.72
2023-02-11T07:39:30.865Z,102570.91
2023-02-11T07:41:58.436Z,102564.53
2023-02-11T07:44:26.212Z,102565.88
2023-02-11T07:46:53.827Z,102556.97
2023-02-11T07:49:22.746Z,102548.00
2023-02-11T07:51:50.454Z,102554.41
2023-02-11T07:54:19.116Z,102542.91
2023-02-11T07:56:46.945Z,102532.94
2023-02-11T07:59:14.701Z,102533.50
2023-02-11T08:01:42.468Z,102532.91
2023-02-11T08:04:09.995Z,102533.25
2023-02-11T08:06:43.041Z,102534.34
2023-02-11T08:09:15.093Z,102534.75
2023-02-11T08:11:44.238Z,102528.09
2023-02-11T08:14:12.562Z,102522.47
2023-02-11T08:16:43.318Z,102518.53
2023-02-11T08:19:14.027Z,102524.97
2023-02-11T08:21:43.499Z,102525.97
2023-02-11T08:24:11.767Z,102519.25
2023-02-11T08:26:39.690Z,102521.25
2023-02-11T08:29:10.435Z,102523.31
2023-02-11T08:31:41.119Z,102525.00
2023-02-11T08:34:09.428Z,102525.03
2023-02-11T08:36:38.733Z,102519.34
2023-02-11T08:39:19.226Z,102515.06
2023-02-11T08:41:49.897Z,102516.19
2023-02-11T08:44:18.519Z,102508.75
2023-02-11T08:46:46.209Z,102497.16
2023-02-11T08:49:14.306Z,102499.41
2023-02-11T08:51:42.344Z,102497.50
2023-02-11T08:54:12.394Z,102489.41
2023-02-11T08:56:40.533Z,102498.09
2023-02-11T08:59:12.631Z,102493.75
2023-02-11T09:01:40.077Z,102493.66
2023-02-11T09:04:07.612Z,102486.69
2023-02-11T09:06:35.410Z,102490.81
2023-02-11T09:09:03.873Z,102491.38
2023-02-11T09:11:35.228Z,102491.00
2023-02-11T09:14:05.040Z,102494.00
2023-02-11T09:16:34.971Z,102488.22
2023-02-11T09:19:05.870Z,102476.66
2023-02-11T09:21:34.106Z,102477.34
2023-02-11T09:24:01.905Z,102468.94
2023-02-11T09:26:33.332Z,102465.75
2023-02-11T09:29:01.556Z,102461.69
2023-02-11T09:31:31.424Z,102447.22
2023-02-11T09:34:01.648Z,102452.56
2023-02-11T09:36:31.991Z,102446.97
2023-02-11T09:39:01.629Z,102440.44
2023-02-11T09:41:42.105Z,102436.97
2023-02-11T09:44:18.560Z,102414.25
2023-02-11T09:46:50.344Z,102426.06
2023-02-11T09:49:22.979Z,102425.50
2023-02-11T09:51:57.733Z,102410.50
2023-02-11T09:54:30.577Z,102415.28
2023-02-11T09:57:01.114Z,102409.91
2023-02-11T09:59:28.836Z,102407.19
2023-02-11T10:02:00.712Z,102392.28
2023-02-11T10:04:45.276Z,102395.84
2023-02-11T10:07:25.097Z,102389.00
2023-02-11T10:10:04.349Z,102376.16
2023-02-11T10:12:54.708Z,102372.16
2023-02-11T10:15:31.808Z,102368.75
2023-02-11T10:18:20.024Z,102363.44
2023-02-11T10:20:57.958Z,102367.88
2023-02-11T10:23:29.703Z,102360.09
2023-02-11T10:25:58.691Z,102340.25
2023-02-11T10:28:31.779Z,102351.09
2023-02-11T10:31:02.721Z,102346.91
2023-02-11T10:33:34.432Z,102346.88
2023-02-11T10:36:03.547Z,102346.16
2023-02-11T10:38:31.552Z,102333.25
2023-02-11T10:40:59.335Z,102316.09
2023-02-11T10:43:30.538Z,102322.38
2023-02-11T10:45:59.809Z,102326.75
2023-02-11T10:48:40.674Z,102327.00
2023-02-11T10:51:21.795Z,102331.38
2023-02-11T10:53:58.935Z,102318.19
2023-02-11T10:56:28.249Z,102312.31
2023-02-11T10:59:00.316Z,102300.00
2023-02-11T11:01:50.089Z,102310.41
2023-02-11T11:04:42.980Z,102307.31
2023-02-11T11:07:15.873Z,102297.81
2023-02-11T11:09:48.507Z,102291.06
2023-02-11T11:12:47.389Z,102299.16
2023-02-11T11:15:21.930Z,102277.88
2023-02-11T11:17:51.569Z,102275.59
2023-02-11T11:20:24.404Z,102276.22
2023-02-11T11:22:54.299Z,102263.38
2023-02-11T11:25:24.949Z,102266.22
2023-02-11T11:27:57.447Z,102262.72
2023-02-11T11:30:34.020Z,102258.34
2023-02-11T11:33:02.273Z,102248.63
2023-02-11T11:35:32.018Z,102233.09
2023-02-11T11:38:03.416Z,102246.44
2023-02-11T11:40:32.637Z,102241.97
2023-02-11T11:43:07.377Z,102240.13
2023-02-11T11:45:36.876Z,102235.03
2023-02-11T11:48:12.974Z,102227.38
2023-02-11T11:50:44.964Z,102224.84
2023-02-11T11:53:15.210Z,102220.53
2023-02-11T11:55:47.244Z,102216.97
2023-02-11T11:58:20.158Z,102211.88
2023-02-11T12:00:56.342Z,102199.84
2023-02-11T12:03:46.931Z,102200.81
2023-02-11T12:06:27.418Z,102196.50
2023-02-11T12:09:09.747Z,102182.53
2023-02-11T12:11:53.749Z,102184.38
2023-02-11T12:14:29.251Z,102182.72
2023-02-11T12:17:08.277Z,102177.50
2023-02-11T12:19:59.598Z,102175.16
2023-02-11T12:22:40.301Z,102172.56
2023-02-11T12:25:22.590Z,102169.88
2023-02-11T12:28:00.214Z,102169.00
2023-02-11T12:30:54.748Z,102170.59
2023-02-11T12:33:44.132Z,102165.38
2023-02-11T12:36:20.251Z,102162.78
2023-02-11T12:38:59.175Z,102164.59
2023-02-11T12:41:44.871Z,102157.59
2023-02-11T12:44:21.611Z,102147.84
2023-02-11T12:46:54.750Z,102154.00
2023-02-11T12:49:45.011Z,102155.59
2023-02-11T12:52:30.209Z,102144.31
2023-02-11T12:55:02.400Z,102139.97
2023-02-11T12:57:32.848Z,102149.44
2023-02-11T13:00:04.914Z,102143.25
2023-02-11T13:02:41.534Z,102142.44
2023-02-11T13:05:23.512Z,102132.00
2023-02-11T13:07:55.747Z,102121.41
2023-02-11T13:10:29.005Z,102121.19
2023-02-11T13:12:58.888Z,102121.78
2023-02-11T13:15:27.007Z,102127.66
2023-02-11T13:18:02.206Z,102129.94
2023-02-11T13:20:42.036Z,102133.19
2023-02-11T13:23:18.991Z,102116.25
2023-02-11T13:25:52.418Z,102122.34
2023-02-11T13:28:36.934Z,102110.84
2023-02-11T13:31:05.515Z,102114.44
2023-02-11T13:33:36.342Z,102110.22
2023-02-11T13:36:20.933Z,102096.22
2023-02-11T13:39:00.579Z,102107.78
2023-02-11T13:41:31.076Z,102097.31
2023-02-11T13:44:13.911Z,102092.97
2023-02-11T13:46:50.356Z,102091.16
2023-02-11T13:49:21.684Z,102084.31
2023-02-11T13:51:54.367Z,102083.47
2023-02-11T13:54:33.202Z,102087.69
2023-02-11T13:57:27.354Z,102095.38
2023-02-11T13:59:56.502Z,102079.72
2023-02-11T14:02:32.604Z,102077.22
2023-02-11T14:05:20.792Z,102075.44
2023-02-11T14:08:18.898Z,102071.03
2023-02-11T14:10:52.132Z,102057.09
2023-02-11T14:13:24.775Z,102059.75
2023-02-11T14:16:07.944Z,102070.00
2023-02-11T14:19:00.318Z,102068.13
2023-02-11T14:21:35.336Z,102065.47
2023-02-11T14:24:43.780Z,102058.41
2023-02-11T14:27:18.960Z,102056.63
2023-02-11T14:29:55.300Z,102054.81
2023-02-11T14:32:38.003Z,102054.75
2023-02-11T14:35:10.756Z,102053.63
2023-02-11T14:37:50.336Z,102038.78
2023-02-11T14:40:27.604Z,102048.09
2023-02-11T14:42:58.831Z,102042.72
2023-02-11T14:45:28.716Z,102048.53
2023-02-11T14:48:03.670Z,102049.25
2023-02-11T14:50:37.266Z,102038.72
2023-02-11T14:53:08.219Z,102045.44
2023-02-11T14:55:40.811Z,102049.44
2023-02-11T14:58:14.778Z,102037.84
2023-02-11T15:00:52.054Z,102047.09
2023-02-11T15:03:31.434Z,102043.34
2023-02-11T15:06:02.511Z,102030.94
2023-02-11T15:08:34.258Z,102039.91
2023-02-11T15:11:04.597Z,102041.13
2023-02-11T15:13:35.239Z,102039.00
2023-02-11T15:16:09.183Z,102037.38
2023-02-11T15:18:40.769Z,102047.34
2023-02-11T15:21:09.834Z,102048.88
2023-02-11T15:23:37.557Z,102050.13
2023-02-11T15:26:13.441Z,102037.22
2023-02-11T15:28:46.791Z,102050.44
2023-02-11T15:31:16.671Z,102051.91
2023-02-11T15:33:44.505Z,102049.88
2023-02-11T15:36:13.571Z,102048.75
2023-02-11T15:38:41.427Z,102055.41
2023-02-11T15:41:38.002Z,102051.88
2023-02-11T15:44:27.666Z,102045.94
2023-02-11T15:46:55.595Z,102039.94
2023-02-11T15:49:24.503Z,102045.44
2023-02-11T15:51:54.313Z,102041.34
2023-02-11T15:54:25.616Z,102050.97
2023-02-11T15:56:55.248Z,102052.69
2023-02-11T15:59:28.715Z,102052.63
2023-02-11T16:01:58.738Z,102042.00
2023-02-11T16:04:27.957Z,102048.31
2023-02-11T16:06:56.006Z,102045.63
2023-02-11T16:09:35.700Z,102046.59
2023-02-11T16:12:06.345Z,102034.38
2023-02-11T16:14:36.291Z,102033.38
2023-02-11T16:17:08.749Z,102029.72
2023-02-11T16:19:42.821Z,102034.03
2023-02-11T16:22:15.343Z,102023.63
2023-02-11T16:24:46.653Z,102014.03
2023-02-11T16:27:21.784Z,102008.78
2023-02-11T16:29:51.890Z,102009.00
2023-02-11T16:32:21.713Z,102010.81
2023-02-11T16:34:49.961Z,102018.75
2023-02-11T16:37:17.707Z,102012.00
2023-02-11T16:39:45.458Z,102014.00
2023-02-11T16:42:13.421Z,102006.25
2023-02-11T16:44:41.410Z,102003.00
2023-02-11T16:47:19.367Z,101990.66
2023-02-11T16:49:47.472Z,102001.16
2023-02-11T16:52:16.808Z,101995.16
2023-02-11T16:54:45.192Z,102002.03
2023-02-11T16:57:16.029Z,101994.16
2023-02-11T16:59:44.415Z,102002.03
2023-02-11T17:02:18.531Z,101999.38
2023-02-11T17:04:46.854Z,101998.38
2023-02-11T17:07:14.498Z,101986.03
2023-02-11T17:09:42.164Z,101986.91
2023-02-11T17:12:09.818Z,102001.47
2023-02-11T17:14:37.433Z,101995.22
2023-02-11T17:17:05.157Z,101996.72
2023-02-11T17:19:36.184Z,101991.25
2023-02-11T17:22:04.181Z,101994.50
2023-02-11T17:24:32.419Z,101997.81
2023-02-11T17:27:00.167Z,101990.72
2023-02-11T17:29:28.907Z,101998.09
2023-02-11T17:31:56.715Z,101999.59
2023-02-11T17:34:24.470Z,101996.78
2023-02-11T17:36:53.383Z,102002.50
2023-02-11T17:39:21.357Z,101990.09
2023-02-11T17:41:49.027Z,101993.25
2023-02-11T17:44:21.859Z,102003.22
2023-02-11T17:46:49.436Z,101999.47
2023-02-11T17:49:17.453Z,101998.31
2023-02-11T17:51:50.783Z,101984.25
2023-02-11T17:54:20.258Z,101995.16
2023-02-11T17:56:50.362Z,101987.13
2023-02-11T17:59:18.590Z,101983.44
2023-02-11T18:01:46.287Z,101978.88
2023-02-11T18:04:18.940Z,101973.44
2023-02-11T18:06:47.444Z,101975.69
2023-02-11T18:09:15.598Z,101965.72
2023-02-11T18:11:44.883Z,101962.09
2023-02-11T18:14:12.843Z,101959.41
2023-02-11T18:16:41.670Z,101936.75
2023-02-11T18:19:11.350Z,101933.06
2023-02-11T18:21:39.922Z,101938.06
2023-02-11T18:24:07.458Z,101930.91
2023-02-11T18:26:36.102Z,101922.16
2023-02-11T18:29:05.401Z,101924.72
2023-02-11T18:31:33.584Z,101925.34
2023-02-11T18:34:01.657Z,101917.28
2023-02-11T18:36:29.546Z,101922.00
2023-02-11T18:38:57.064Z,101912.13
2023-02-11T18:41:24.763Z,101912.63
2023-02-11T18:43:52.702Z,101905.22
2023-02-11T18:46:21.920Z,101899.84
2023-02-11T18:48:49.699Z,101914.31
2023-02-11T18:51:18.400Z,101900.72
2023-02-11T18:53:46.703Z,101903.06
2023-02-11T18:56:16.697Z,101899.34
2023-02-11T18:58:44.446Z,101897.53
2023-02-11T19:01:14.154Z,101899.03
2023-02-11T19:03:43.851Z,101894.94
2023-02-11T19:06:16.264Z,101897.97
2023-02-11T19:08:47.377Z,101905.53
2023-02-11T19:11:15.314Z,101901.13
2023-02-11T19:13:42.830Z,101896.41
2023-02-11T19:16:11.671Z,101884.59
2023-02-11T19:18:39.332Z,101888.31
2023-02-11T19:21:10.185Z,101883.94
2023-02-11T19:23:38.621Z,101876.41
2023-02-11T19:26:06.623Z,101865.38
2023-02-11T19:28:34.826Z,101863.78
2023-02-11T19:31:06.693Z,101861.22
2023-02-11T19:33:35.608Z,101857.28
2023-02-11T19:36:05.359Z,101861.91
2023-02-11T19:38:34.588Z,101867.81
2023-02-11T19:41:02.212Z,101862.56
2023-02-11T19:43:30.191Z,101854.13
2023-02-11T19:45:57.922Z,101854.13
2023-02-11T19:48:26.007Z,101854.03
2023-02-11T19:50:56.022Z,101844.59
2023-02-11T19:53:24.232Z,101831.91
2023-02-11T19:55:53.888Z,101833.28
2023-02-11T19:58:21.779Z,101839.59
2023-02-11T20:00:49.443Z,101826.97
2023-02-11T20:03:18.412Z,101825.47
2023-02-11T20:05:46.028Z,101819.97
2023-02-11T20:08:17.789Z,101815.59
2023-02-11T20:10:46.196Z,101806.00
2023-02-11T20:13:16.161Z,101814.66
2023-02-11T20:15:44.172Z,101814.25
2023-02-11T20:18:11.969Z,101810.06
2023-02-11T20:20:40.139Z,101804.94
2023-02-11T20:23:08.010Z,101805.97
2023-02-11T20:25:39.515Z,101789.81
2023-02-11T20:28:07.220Z,101796.97
2023-02-11T20:30:36.485Z,101781.13
2023-02-11T20:33:04.244Z,101785.91
2023-02-11T20:35:36.418Z,101784.69
2023-02-11T20:38:04.292Z,101770.25
2023-02-11T20:40:33.314Z,101764.53
2023-02-11T20:43:00.835Z,101770.69
2023-02-11T20:45:28.758Z,101772.59
2023-02-11T20:47:57.686Z,101771.03
2023-02-11T20:50:25.215Z,101754.75
2023-02-11T20:52:53.102Z,101760.41
2023-02-11T20:55:20.781Z,101755.91
2023-02-11T20:57:48.435Z,101762.31
2023-02-11T21:00:17.587Z,101753.56
2023-02-11T21:02:45.492Z,101749.44
2023-02-11T21:05:14.643Z,101754.50
2023-02-11T21:07:42.505Z,101750.50
2023-02-11T21:10:10.842Z,101735.00
2023-02-11T21:12:38.519Z,101739.47
2023-02-11T21:15:06.750Z,101722.81
2023-02-11T21:17:37.153Z,101730.44
2023-02-11T21:20:05.313Z,101722.81
2023-02-11T21:22:34.922Z,101721.91
2023-02-11T21:25:02.454Z,101728.81
2023-02-11T21:27:33.675Z,101737.31
2023-02-11T21:30:02.196Z,101727.47
2023-02-11T21:32:30.695Z,101718.78
2023-02-11T21:35:01.878Z,101707.44
2023-02-11T21:37:30.423Z,101712.56
2023-02-11T21:39:59.347Z,101709.97
2023-02-11T21:42:26.925Z,101719.66
2023-02-11T21:44:54.867Z,101726.53
2023-02-11T21:47:22.473Z,101730.03
2023-02-11T21:49:50.977Z,101725.38
2023-02-11T21:52:18.889Z,101715.47
2023-02-11T21:54:49.508Z,101715.78
2023-02-11T21:57:18.732Z,101705.97
2023-02-11T21:59:46.422Z,101694.72
2023-02-11T22:02:14.136Z,101688.81
2023-02-11T22:04:42.776Z,101679.47
2023-02-11T22:07:10.617Z,101675.53
2023-02-11T22:09:43.967Z,101669.50
2023-02-11T22:12:11.644Z,101664.94
2023-02-11T22:14:42.334Z,101656.22
2023-02-11T22:17:10.548Z,101656.94
2023-02-11T22:19:38.417Z,101677.53
2023-02-11T22:22:06.370Z,101684.19
2023-02-11T22:24:34.186Z,101706.25
2023-02-11T22:27:05.076Z,101706.47
2023-02-11T22:29:32.622Z,101701.53
2023-02-11T22:32:02.135Z,101704.09
2023-02-11T22:34:29.902Z,101693.13
2023-02-11T22:36:57.877Z,101688.13
2023-02-11T22:39:25.717Z,101688.81
2023-02-11T22:41:53.505Z,101686.25
2023-02-11T22:44:20.987Z,101681.88
2023-02-11T22:46:48.959Z,101678.53
2023-02-11T22:49:20.113Z,101687.28
2023-02-11T22:51:47.866Z,101688.94
2023-02-11T22:54:17.582Z,101668.56
2023-02-11T22:56:46.073Z,101665.00
2023-02-11T22:59:15.241Z,101670.38
2023-02-11T23:01:43.657Z,101668.63
2023-02-11T23:04:13.993Z,101660.44
2023-02-11T23:06:43.456Z,101649.59
2023-02-11T23:09:11.832Z,101660.22
2023-02-11T23:11:40.051Z,101656.94
2023-02-11T23:14:08.678Z,101641.69
2023-02-11T23:16:37.922Z,101637.63
2023-02-11T23:19:07.831Z,101640.34
2023-02-11T23:21:38.056Z,101634.47
2023-02-11T23:24:10.298Z,101621.84
2023-02-11T23:26:38.941Z,101625.34
2023-02-11T23:29:06.956Z,101621.13
2023-02-11T23:31:37.141Z,101621.28
2023-02-11T23:34:05.870Z,101612.50
2023-02-11T23:36:33.603Z,101615.16
2023-02-11T23:39:05.016Z,101612.66
2023-02-11T23:41:35.092Z,101620.38
2023-02-11T23:44:02.816Z,101603.22
2023-02-11T23:46:30.544Z,101599.81
2023-02-11T23:48:58.348Z,101607.59
2023-02-11T23:51:25.980Z,101616.19
2023-02-11T23:53:53.942Z,101613.72
2023-02-11T23:56:23.582Z,101608.66
2023-02-11T23:58:54.887Z,101611.44
